Zhangshu, China
Current Conditions -  °F | °C
As of 9:00 AM on Sunday 21 Dec 2014 (Local Time) from ZGHA Reporting Station
Haze Haze  
Wind Chill: 32°   Ceiling: Unl
Heat Index: 39°   Visibility: 3mi
Dew Point: 28°   Wind: 11mph
Humidity: 65%   Direction: 350°N
Pressure: 30.56"   Gusts: NA
Location:  28.08°N, 115.52°E
Report Text: ZGHA 210100Z 35005MPS 5000 HZ NSC 04/M02 Q1035 NOSIG
Loading
Personal Weather Stations






























Interactive Weather Map New forecast layout! Learn more

10-Day Weather Forecast

Advertisements
Track Severe Weather on mobile